createdAt,value
2018-01-10T00:01:07.086Z,10.23
2018-01-10T00:02:17.147Z,10.28
2018-01-10T00:03:27.221Z,10.29
2018-01-10T00:04:37.324Z,10.25
2018-01-10T00:05:47.383Z,10.39
2018-01-10T00:06:57.190Z,10.28
2018-01-10T00:08:06.966Z,10.25
2018-01-10T00:09:17.006Z,10.32
2018-01-10T00:10:27.068Z,10.36
2018-01-10T00:11:36.862Z,10.29
2018-01-10T00:12:46.939Z,10.23
2018-01-10T00:13:57.010Z,10.31
2018-01-10T00:15:06.822Z,10.28
2018-01-10T00:16:16.871Z,10.28
2018-01-10T00:17:26.670Z,10.31
2018-01-10T00:18:36.474Z,10.25
2018-01-10T00:19:46.529Z,10.29
2018-01-10T00:20:56.351Z,10.18
2018-01-10T00:22:06.449Z,10.26
2018-01-10T00:23:16.236Z,10.26
2018-01-10T00:24:26.280Z,10.2
2018-01-10T00:25:36.329Z,10.21
2018-01-10T00:26:46.379Z,10.2
2018-01-10T00:27:56.422Z,10.11
2018-01-10T00:29:06.223Z,10.15
2018-01-10T00:30:15.785Z,10.13
2018-01-10T00:31:25.858Z,10.18
2018-01-10T00:32:35.920Z,10.08
2018-01-10T00:33:46.035Z,10.08
2018-01-10T00:34:56.090Z,10.08
2018-01-10T00:36:06.134Z,10.05
2018-01-10T00:37:15.943Z,10.08
2018-01-10T00:38:26.021Z,9.93
2018-01-10T00:39:35.820Z,10.02
2018-01-10T00:40:45.879Z,9.98
2018-01-10T00:41:55.933Z,9.99
2018-01-10T00:43:05.973Z,9.95
2018-01-10T00:44:16.038Z,9.98
2018-01-10T00:45:26.150Z,9.96
2018-01-10T00:46:35.965Z,9.93
2018-01-10T00:47:46.016Z,9.92
2018-01-10T00:48:56.072Z,9.96
2018-01-10T00:50:06.128Z,9.98
2018-01-10T00:51:16.259Z,9.99
2018-01-10T00:52:27.344Z,9.95
2018-01-10T00:53:37.390Z,9.98
2018-01-10T00:54:47.171Z,9.93
2018-01-10T00:55:57.219Z,9.95
2018-01-10T00:57:07.016Z,9.93
2018-01-10T00:58:17.060Z,9.89
2018-01-10T00:59:27.104Z,9.95
2018-01-10T01:00:37.155Z,9.99
2018-01-10T01:01:47.203Z,9.99
2018-01-10T01:02:57.265Z,9.95
2018-01-10T01:04:07.346Z,9.99
2018-01-10T01:05:17.400Z,9.92
2018-01-10T01:06:27.190Z,9.9
2018-01-10T01:07:36.521Z,9.95
2018-01-10T01:08:46.618Z,9.96
2018-01-10T01:09:56.670Z,9.84
2018-01-10T01:11:06.717Z,9.89
2018-01-10T01:12:16.513Z,9.85
2018-01-10T01:13:26.560Z,9.85
2018-01-10T01:14:36.611Z,9.8
2018-01-10T01:15:46.395Z,9.9
2018-01-10T01:16:56.453Z,9.81
2018-01-10T01:18:06.509Z,9.88
2018-01-10T01:19:16.566Z,9.67
2018-01-10T01:20:26.314Z,9.78
2018-01-10T01:21:36.352Z,9.71
2018-01-10T01:22:46.389Z,9.77
2018-01-10T01:23:56.158Z,9.77
2018-01-10T01:25:06.588Z,9.7
2018-01-10T01:26:16.373Z,9.6
2018-01-10T01:27:26.416Z,9.64
2018-01-10T01:28:36.469Z,9.57
2018-01-10T01:29:46.523Z,9.67
2018-01-10T01:30:56.588Z,9.74
2018-01-10T01:32:06.645Z,9.67
2018-01-10T01:33:16.701Z,9.63
2018-01-10T01:34:26.784Z,9.6
2018-01-10T01:35:36.567Z,9.64
2018-01-10T01:36:46.634Z,9.64
2018-01-10T01:37:56.722Z,9.63
2018-01-10T01:39:06.250Z,9.67
2018-01-10T01:40:16.312Z,9.59
2018-01-10T01:41:26.361Z,9.64
2018-01-10T01:42:36.419Z,9.62
2018-01-10T01:43:46.251Z,9.66
2018-01-10T01:44:56.035Z,9.66
2018-01-10T01:46:06.082Z,9.6
2018-01-10T01:47:15.868Z,9.53
2018-01-10T01:48:25.665Z,9.48
2018-01-10T01:49:35.707Z,9.45
2018-01-10T01:50:45.511Z,9.45
2018-01-10T01:51:55.561Z,9.41
2018-01-10T01:53:05.620Z,9.42
2018-01-10T01:54:15.702Z,9.3
2018-01-10T01:55:25.763Z,9.3
2018-01-10T01:56:35.816Z,9.34
2018-01-10T01:57:45.592Z,9.39
2018-01-10T01:58:55.415Z,9.38
2018-01-10T02:00:05.196Z,9.34
2018-01-10T02:01:15.053Z,9.29
2018-01-10T02:02:25.099Z,9.29
2018-01-10T02:03:35.140Z,9.2
2018-01-10T02:04:45.187Z,9.2
2018-01-10T02:05:54.979Z,9.2
2018-01-10T02:07:05.043Z,9.27
2018-01-10T02:08:15.099Z,9.19
2018-01-10T02:09:25.147Z,9.12
2018-01-10T02:10:35.193Z,9.2
2018-01-10T02:11:45.233Z,9.2
2018-01-10T02:12:55.294Z,9.04
2018-01-10T02:14:05.097Z,9.05
2018-01-10T02:15:15.144Z,9.11
2018-01-10T02:16:25.190Z,8.98
2018-01-10T02:17:35.236Z,9.03
2018-01-10T02:18:45.280Z,9.08
2018-01-10T02:19:55.066Z,9.04
2018-01-10T02:21:05.110Z,8.92
2018-01-10T02:22:15.166Z,8.97
2018-01-10T02:23:24.960Z,8.9
2018-01-10T02:24:34.750Z,8.94
2018-01-10T02:25:44.842Z,8.9
2018-01-10T02:26:54.906Z,8.95
2018-01-10T02:28:04.699Z,8.95
2018-01-10T02:29:14.526Z,8.95
2018-01-10T02:30:24.378Z,8.86
2018-01-10T02:31:33.928Z,8.89
2018-01-10T02:32:43.995Z,8.95
2018-01-10T02:33:54.038Z,8.83
2018-01-10T02:35:04.099Z,8.86
2018-01-10T02:36:13.941Z,8.92
2018-01-10T02:37:23.991Z,8.9
2018-01-10T02:38:34.100Z,8.94
2018-01-10T02:39:44.145Z,8.86
2018-01-10T02:40:54.196Z,8.9
2018-01-10T02:42:04.303Z,8.87
2018-01-10T02:43:14.110Z,8.9
2018-01-10T02:44:24.197Z,8.82
2018-01-10T02:45:33.753Z,8.92
2018-01-10T02:46:43.543Z,8.86
2018-01-10T02:47:53.333Z,8.9
2018-01-10T02:49:03.381Z,8.8
2018-01-10T02:50:13.426Z,8.79
2018-01-10T02:51:23.479Z,8.87
2018-01-10T02:52:33.536Z,8.72
2018-01-10T02:53:43.637Z,8.79
2018-01-10T02:54:53.687Z,8.68
2018-01-10T02:56:03.740Z,8.68
2018-01-10T02:58:23.907Z,8.64
2018-01-10T02:59:34.034Z,8.61
2018-01-10T03:00:44.126Z,8.58
2018-01-10T03:01:54.184Z,8.47
2018-01-10T03:34:12.653Z,6.17
2018-01-10T03:35:22.685Z,6.13
2018-01-10T03:36:32.732Z,6.1
2018-01-10T03:37:42.786Z,6.14
2018-01-10T03:38:52.823Z,6.31
2018-01-10T03:40:02.875Z,6.42
2018-01-10T03:41:12.917Z,6.47
2018-01-10T03:42:22.970Z,6.55
2018-01-10T03:43:32.741Z,6.68
2018-01-10T03:44:42.817Z,6.8
2018-01-10T03:45:52.619Z,6.97
2018-01-10T03:47:02.663Z,6.95
2018-01-10T03:48:12.207Z,7.09
2018-01-10T03:49:22.247Z,7.19
2018-01-10T03:50:32.306Z,7.3
2018-01-10T03:51:42.361Z,7.33
2018-01-10T03:52:51.904Z,7.48
2018-01-10T03:54:01.951Z,7.52
2018-01-10T03:55:12.010Z,7.55
2018-01-10T03:56:22.051Z,7.64
2018-01-10T03:57:32.248Z,7.7
2018-01-10T03:58:42.043Z,7.73
2018-01-10T03:59:52.091Z,7.78
2018-01-10T04:01:02.130Z,7.82
2018-01-10T04:02:12.185Z,7.85
2018-01-10T04:03:22.291Z,7.85
2018-01-10T04:04:32.342Z,7.85
2018-01-10T04:05:42.430Z,7.92
2018-01-10T04:06:51.951Z,7.95
2018-01-10T04:08:01.999Z,7.98
2018-01-10T04:09:11.839Z,8.06
2018-01-10T04:10:21.891Z,7.92
2018-01-10T04:11:32.024Z,8.06
2018-01-10T04:12:42.070Z,7.91
2018-01-10T04:13:52.212Z,7.92
2018-01-10T04:15:02.318Z,8.01
2018-01-10T04:16:12.364Z,7.93
2018-01-10T04:17:22.429Z,8.01
2018-01-10T04:21:47.298Z,7.91
2018-01-10T04:22:57.098Z,7.95
2018-01-10T04:24:07.160Z,8.07
2018-01-10T04:25:16.954Z,7.98
2018-01-10T04:26:26.742Z,8.1
2018-01-10T04:27:36.893Z,8.01
2018-01-10T04:28:46.946Z,8.04
2018-01-10T04:29:56.741Z,7.96
2018-01-10T04:31:06.535Z,8.04
2018-01-10T04:32:16.326Z,8.04
2018-01-10T04:33:26.116Z,8.03
2018-01-10T04:34:35.904Z,7.99
2018-01-10T04:35:45.960Z,8.01
2018-01-10T04:36:55.748Z,7.96
2018-01-10T04:38:05.795Z,8.07
2018-01-10T04:39:15.834Z,8.03
2018-01-10T04:40:25.888Z,8.04
2018-01-10T04:41:35.944Z,7.96
2018-01-10T04:42:46.000Z,8.04
2018-01-10T04:43:55.802Z,8.03
2018-01-10T04:45:05.925Z,8.04
2018-01-10T04:46:15.710Z,8.04
2018-01-10T04:47:25.489Z,7.88
2018-01-10T04:48:35.558Z,7.99
2018-01-10T04:49:45.337Z,8.04
2018-01-10T04:50:54.870Z,7.99
2018-01-10T04:52:04.924Z,8.01
2018-01-10T04:53:14.966Z,7.95
2018-01-10T04:54:25.020Z,7.91
2018-01-10T04:55:34.821Z,7.95
2018-01-10T04:56:44.671Z,8.01
2018-01-10T04:57:54.732Z,7.85
2018-01-10T04:59:04.775Z,7.92
2018-01-10T05:00:14.826Z,7.92
2018-01-10T05:01:24.885Z,7.99
2018-01-10T05:02:34.452Z,7.95
2018-01-10T05:03:44.512Z,7.91
2018-01-10T05:04:54.285Z,7.96
2018-01-10T05:06:04.330Z,7.89
2018-01-10T05:07:14.382Z,7.86
2018-01-10T05:08:23.705Z,7.95
2018-01-10T05:09:33.482Z,7.89
2018-01-10T05:10:43.526Z,7.93
2018-01-10T05:11:53.574Z,7.88
2018-01-10T05:13:03.370Z,7.93
2018-01-10T05:14:13.416Z,7.89
2018-01-10T05:15:23.459Z,7.91
2018-01-10T05:16:33.498Z,7.92
2018-01-10T05:17:43.283Z,7.89
2018-01-10T05:18:53.065Z,7.93
2018-01-10T05:20:02.972Z,7.83
2018-01-10T05:21:12.771Z,7.85
2018-01-10T05:22:22.817Z,7.78
2018-01-10T05:23:32.878Z,7.86
2018-01-10T05:24:42.669Z,7.93
2018-01-10T05:25:52.810Z,7.83
2018-01-10T05:27:02.859Z,7.88
2018-01-10T05:28:12.658Z,7.88
2018-01-10T05:29:22.463Z,7.83
2018-01-10T05:30:32.005Z,7.85
2018-01-10T05:31:42.554Z,7.8
2018-01-10T05:32:52.590Z,7.78
2018-01-10T05:34:02.662Z,7.88
2018-01-10T05:35:12.716Z,7.86
2018-01-10T05:36:22.760Z,7.8
2018-01-10T05:37:32.813Z,7.8
2018-01-10T05:38:42.346Z,7.89
2018-01-10T05:39:52.419Z,7.85
2018-01-10T05:41:02.203Z,7.89
2018-01-10T05:42:12.250Z,7.85
2018-01-10T05:43:22.087Z,7.85
2018-01-10T05:44:31.623Z,7.83
2018-01-10T05:45:41.680Z,7.8
2018-01-10T05:46:51.467Z,7.85
2018-01-10T05:48:00.992Z,7.83
2018-01-10T05:49:11.037Z,7.88
2018-01-10T05:50:20.817Z,7.85
2018-01-10T05:51:30.877Z,7.86
2018-01-10T05:52:40.930Z,7.82
2018-01-10T05:53:50.728Z,7.88
2018-01-10T05:55:00.810Z,7.77
2018-01-10T05:56:10.640Z,7.78
2018-01-10T05:57:20.701Z,7.8
2018-01-10T05:58:30.499Z,7.78
2018-01-10T05:59:40.300Z,7.74
2018-01-10T06:00:50.505Z,7.85
2018-01-10T06:02:00.563Z,7.74
2018-01-10T06:03:10.615Z,7.75
2018-01-10T06:04:20.684Z,7.74
2018-01-10T06:05:30.481Z,7.78
2018-01-10T06:06:40.523Z,7.74
2018-01-10T06:07:50.588Z,7.74
2018-01-10T06:09:00.626Z,7.71
2018-01-10T06:10:10.687Z,7.73
2018-01-10T06:11:20.738Z,7.73
2018-01-10T06:12:30.784Z,7.75
2018-01-10T06:13:40.866Z,7.74
2018-01-10T06:14:50.925Z,7.68
2018-01-10T06:16:00.965Z,7.73
2018-01-10T06:17:10.766Z,7.68
2018-01-10T06:18:20.970Z,7.68
2018-01-10T06:19:31.039Z,7.68
2018-01-10T06:20:41.078Z,7.63
2018-01-10T06:21:51.158Z,7.64
2018-01-10T06:23:01.207Z,7.64
2018-01-10T06:24:11.065Z,7.61
2018-01-10T06:25:20.874Z,7.59
2018-01-10T06:26:30.918Z,7.67
2018-01-10T06:27:40.968Z,7.59
2018-01-10T06:28:51.024Z,7.59
2018-01-10T06:30:01.118Z,7.67
2018-01-10T06:31:10.923Z,7.63
2018-01-10T06:32:20.994Z,7.64
2018-01-10T06:33:31.036Z,7.63
2018-01-10T06:34:41.088Z,7.61
2018-01-10T06:35:50.950Z,7.61
2018-01-10T06:37:00.734Z,7.63
2018-01-10T06:38:10.850Z,7.58
2018-01-10T06:39:20.908Z,7.7
2018-01-10T06:40:30.956Z,7.7
2018-01-10T06:41:41.060Z,7.63
2018-01-10T06:42:51.341Z,7.64
2018-01-10T06:44:01.162Z,7.59
2018-01-10T06:45:10.976Z,7.61
2018-01-10T06:46:20.781Z,7.58
2018-01-10T06:47:30.881Z,7.68
2018-01-10T06:48:40.716Z,7.56
2018-01-10T06:49:50.582Z,7.59
2018-01-10T06:51:00.656Z,7.63
2018-01-10T06:52:10.447Z,7.61
2018-01-10T06:53:20.331Z,7.48
2018-01-10T06:54:30.163Z,7.52
2018-01-10T06:55:39.978Z,7.55
2018-01-10T06:56:50.032Z,7.63
2018-01-10T06:57:59.838Z,7.61
2018-01-10T06:59:10.094Z,7.56
2018-01-10T07:00:19.888Z,7.63
2018-01-10T07:01:29.758Z,7.63
2018-01-10T07:02:39.561Z,7.51
2018-01-10T07:03:49.373Z,7.49
2018-01-10T07:04:59.493Z,7.55
2018-01-10T07:06:09.281Z,7.58
2018-01-10T07:07:19.367Z,7.64
2018-01-10T07:08:29.501Z,7.52
2018-01-10T07:09:39.498Z,7.59
2018-01-10T07:10:49.619Z,7.63
2018-01-10T07:11:59.685Z,7.54
2018-01-10T07:13:09.765Z,7.52
2018-01-10T07:14:19.584Z,7.52
2018-01-10T07:15:29.646Z,7.54
2018-01-10T07:16:39.763Z,7.44
2018-01-10T07:17:49.833Z,7.51
2018-01-10T07:18:59.927Z,7.47
2018-01-10T07:20:10.012Z,7.55
2018-01-10T07:21:20.059Z,7.59
2018-01-10T07:22:30.127Z,7.51
2018-01-10T07:23:40.201Z,7.51
2018-01-10T07:24:50.283Z,7.47
2018-01-10T07:26:00.108Z,7.48
2018-01-10T07:27:09.925Z,7.51
2018-01-10T07:28:19.734Z,7.56
2018-01-10T07:29:29.600Z,7.52
2018-01-10T07:30:40.407Z,7.49
2018-01-10T07:31:50.478Z,7.56
2018-01-10T07:33:01.288Z,7.48
2018-01-10T07:34:11.408Z,7.47
2018-01-10T07:35:21.698Z,7.56
2018-01-10T07:36:31.750Z,7.61
2018-01-10T07:37:41.810Z,7.51
2018-01-10T07:38:51.872Z,7.47
2018-01-10T07:40:01.992Z,7.55
2018-01-10T07:41:12.060Z,7.63
2018-01-10T07:42:22.115Z,7.52
2018-01-10T07:43:32.236Z,7.51
2018-01-10T07:44:42.308Z,7.52
2018-01-10T07:45:52.356Z,7.68
2018-01-10T07:47:02.152Z,7.7
2018-01-10T07:48:12.219Z,7.7
2018-01-10T07:49:22.356Z,7.68
2018-01-10T07:50:32.417Z,7.55
2018-01-10T07:51:42.222Z,7.47
2018-01-10T07:52:52.790Z,7.49
2018-01-10T07:54:02.838Z,7.45
2018-01-10T07:55:12.918Z,7.47
2018-01-10T07:56:22.972Z,7.39
2018-01-10T07:57:32.822Z,7.51
2018-01-10T07:58:42.876Z,7.49
2018-01-10T07:59:52.734Z,7.47
2018-01-10T08:01:02.842Z,7.44
2018-01-10T08:02:12.961Z,7.36
2018-01-10T08:03:23.611Z,7.39
2018-01-10T08:04:33.677Z,7.34
2018-01-10T08:05:43.738Z,7.47
2018-01-10T08:06:53.849Z,7.47
2018-01-10T08:08:03.921Z,7.37
2018-01-10T08:09:13.985Z,7.31
2018-01-10T08:10:24.134Z,7.44
2018-01-10T08:11:33.956Z,7.44
2018-01-10T08:12:44.066Z,7.34
2018-01-10T08:13:53.865Z,7.36
2018-01-10T08:15:04.063Z,7.39
2018-01-10T08:16:14.125Z,7.36
2018-01-10T08:17:24.194Z,7.44
2018-01-10T08:18:34.025Z,7.39
2018-01-10T08:19:44.086Z,7.49
2018-01-10T08:20:53.895Z,7.48
2018-01-10T08:22:03.700Z,7.49
2018-01-10T08:23:13.823Z,7.56
2018-01-10T08:24:23.892Z,7.52
2018-01-10T08:25:33.715Z,7.54
2018-01-10T08:26:43.775Z,7.52
2018-01-10T08:27:53.848Z,7.55
2018-01-10T08:29:03.626Z,7.47
2018-01-10T08:30:13.712Z,7.41
2018-01-10T08:31:23.786Z,7.34
2018-01-10T08:32:33.855Z,7.36
2018-01-10T08:33:43.927Z,7.47
2018-01-10T08:34:54.065Z,7.37
2018-01-10T08:36:04.130Z,7.44
2018-01-10T08:37:14.207Z,7.3
2018-01-10T08:38:24.011Z,7.48
2018-01-10T08:39:35.021Z,7.36
2018-01-10T08:40:45.127Z,7.44
2018-01-10T08:41:56.403Z,7.31
2018-01-10T08:43:06.467Z,7.39
2018-01-10T08:44:16.509Z,7.37
2018-01-10T08:45:26.329Z,7.52
2018-01-10T08:46:37.097Z,7.52
2018-01-10T08:47:47.200Z,7.51
2018-01-10T08:48:57.278Z,7.45
2018-01-10T08:50:07.078Z,7.56
2018-01-10T08:51:17.135Z,7.51
2018-01-10T08:52:27.221Z,7.52
2018-01-10T08:53:36.769Z,7.51
2018-01-10T08:54:46.840Z,7.48
2018-01-10T08:55:56.899Z,7.49
2018-01-10T08:57:06.962Z,7.49
2018-01-10T08:58:17.033Z,7.51
2018-01-10T08:59:26.841Z,7.4
2018-01-10T09:00:36.403Z,7.37
2018-01-10T09:01:46.464Z,7.4
2018-01-10T09:02:56.514Z,7.39
2018-01-10T09:04:06.631Z,7.44
2018-01-10T09:05:16.701Z,7.49
2018-01-10T09:06:26.780Z,7.44
2018-01-10T09:07:36.858Z,7.48
2018-01-10T09:08:46.928Z,7.49
2018-01-10T09:09:57.846Z,7.47
2018-01-10T09:11:08.036Z,7.47
2018-01-10T09:12:18.946Z,7.37
2018-01-10T09:13:29.019Z,7.48
2018-01-10T09:14:39.091Z,7.51
2018-01-10T09:15:48.890Z,7.4
2018-01-10T09:16:58.962Z,7.48
2018-01-10T09:18:09.030Z,7.49
2018-01-10T09:19:19.110Z,7.4
2018-01-10T09:20:29.185Z,7.39
2018-01-10T09:21:39.307Z,7.4
2018-01-10T09:22:49.223Z,7.48
2018-01-10T09:23:59.320Z,7.47
2018-01-10T09:25:09.439Z,7.34
2018-01-10T09:26:19.571Z,7.48
2018-01-10T09:27:29.708Z,7.52
2018-01-10T09:28:39.827Z,7.45
2018-01-10T09:29:49.502Z,7.47
2018-01-10T09:30:59.655Z,7.52
2018-01-10T09:32:09.834Z,7.51
2018-01-10T09:33:20.234Z,7.54
2018-01-10T09:34:30.421Z,7.54
2018-01-10T09:35:40.650Z,7.51
2018-01-10T09:36:50.807Z,7.51
2018-01-10T09:38:00.957Z,7.48
2018-01-10T09:39:10.853Z,7.52
2018-01-10T09:40:20.982Z,7.51
2018-01-10T09:41:30.856Z,7.49
2018-01-10T09:42:41.000Z,7.47
2018-01-10T09:43:50.851Z,7.48
2018-01-10T09:45:01.046Z,7.45
2018-01-10T09:46:10.921Z,7.49
2018-01-10T09:47:20.498Z,7.34
2018-01-10T09:48:30.600Z,7.4
2018-01-10T09:49:40.687Z,7.41
2018-01-10T09:50:50.955Z,7.44
2018-01-10T09:52:01.044Z,7.55
2018-01-10T09:53:11.748Z,7.52
2018-01-10T09:54:21.566Z,7.45
2018-01-10T09:55:31.635Z,7.39
2018-01-10T09:56:41.514Z,7.37
2018-01-10T09:57:51.623Z,7.39
2018-01-10T09:59:01.437Z,7.48
2018-01-10T10:00:11.785Z,7.39
2018-01-10T10:01:21.883Z,7.49
2018-01-10T10:02:31.961Z,7.48
2018-01-10T10:03:42.069Z,7.41
2018-01-10T10:04:52.171Z,7.49
2018-01-10T10:06:02.356Z,7.45
2018-01-10T10:07:12.466Z,7.47
2018-01-10T10:08:22.701Z,7.44
2018-01-10T10:09:50.356Z,7.52
2018-01-10T10:11:00.455Z,7.49
2018-01-10T10:12:10.273Z,7.45
2018-01-10T10:13:20.366Z,7.39
2018-01-10T10:14:30.463Z,7.44
2018-01-10T10:15:40.403Z,7.48
2018-01-10T10:16:50.486Z,7.44
2018-01-10T10:18:00.331Z,7.47
2018-01-10T10:19:10.423Z,7.52
2018-01-10T10:20:20.498Z,7.54
2018-01-10T10:21:30.390Z,7.45
2018-01-10T10:22:40.475Z,7.41
2018-01-10T10:23:50.601Z,7.52
2018-01-10T10:25:00.722Z,7.44
2018-01-10T10:26:10.821Z,7.47
2018-01-10T10:27:20.661Z,7.45
2018-01-10T10:28:30.503Z,7.47
2018-01-10T10:29:40.393Z,7.47
2018-01-10T10:30:50.506Z,7.47
2018-01-10T10:32:07.114Z,7.48
2018-01-10T10:33:16.674Z,7.45
2018-01-10T10:34:27.340Z,7.56
2018-01-10T10:35:37.436Z,7.47
2018-01-10T10:36:47.552Z,7.59
2018-01-10T10:37:57.738Z,7.58
2018-01-10T10:39:07.827Z,7.58
2018-01-10T10:40:17.685Z,7.52
2018-01-10T10:41:27.766Z,7.51
2018-01-10T10:42:37.897Z,7.55
2018-01-10T10:43:48.046Z,7.54
2018-01-10T10:44:58.212Z,7.54
2018-01-10T10:46:08.050Z,7.49
2018-01-10T10:47:17.877Z,7.56
2018-01-10T10:48:27.968Z,7.54
2018-01-10T10:49:38.050Z,7.48
2018-01-10T10:50:48.154Z,7.54
2018-01-10T10:51:58.198Z,7.58
2018-01-10T10:53:08.286Z,7.68
2018-01-10T10:54:17.846Z,7.61
2018-01-10T10:55:27.915Z,7.58
2018-01-10T10:56:37.994Z,7.58
2018-01-10T10:57:47.570Z,7.63
2018-01-10T10:58:57.649Z,7.67
2018-01-10T11:00:07.464Z,7.61
2018-01-10T11:01:17.590Z,7.55
2018-01-10T11:02:27.402Z,7.58
2018-01-10T11:03:37.471Z,7.51
2018-01-10T11:04:47.018Z,7.55
2018-01-10T11:05:57.106Z,7.54
2018-01-10T11:07:06.915Z,7.54
2018-01-10T11:08:16.712Z,7.48
2018-01-10T11:09:26.774Z,7.51
2018-01-10T11:10:36.855Z,7.49
2018-01-10T11:11:46.680Z,7.48
2018-01-10T11:12:56.555Z,7.47
2018-01-10T11:14:06.649Z,7.56
2018-01-10T11:15:16.730Z,7.54
2018-01-10T11:16:26.821Z,7.47
2018-01-10T11:17:36.646Z,7.47
2018-01-10T11:18:46.506Z,7.48
2018-01-10T11:19:56.625Z,7.51
2018-01-10T11:21:06.441Z,7.55
2018-01-10T11:22:16.526Z,7.51
2018-01-10T11:23:26.617Z,7.54
2018-01-10T11:24:37.496Z,7.52
2018-01-10T11:25:47.567Z,7.44
2018-01-10T11:26:57.381Z,7.56
2018-01-10T11:28:07.486Z,7.47
2018-01-10T11:29:17.597Z,7.52
2018-01-10T11:30:27.653Z,7.54
2018-01-10T11:31:37.456Z,7.49
2018-01-10T11:32:47.546Z,7.49
2018-01-10T11:33:57.635Z,7.58
2018-01-10T11:35:07.719Z,7.63
2018-01-10T11:36:17.895Z,7.59
2018-01-10T11:37:27.941Z,7.58
2018-01-10T11:38:38.007Z,7.7
2018-01-10T11:39:47.828Z,7.59
2018-01-10T11:40:57.976Z,7.67
2018-01-10T11:42:07.779Z,7.56
2018-01-10T11:43:17.571Z,7.61
2018-01-10T11:44:27.646Z,7.61
2018-01-10T11:45:37.492Z,7.58
2018-01-10T11:46:47.644Z,7.68
2018-01-10T11:47:57.756Z,7.59
2018-01-10T11:49:07.818Z,7.59
2018-01-10T11:50:17.886Z,7.63
2018-01-10T11:51:27.961Z,7.59
2018-01-10T11:52:38.036Z,7.7
2018-01-10T11:53:48.120Z,7.67
2018-01-10T11:54:58.849Z,7.52
2018-01-10T11:56:08.911Z,7.64
2018-01-10T11:57:19.219Z,7.61
2018-01-10T11:58:29.287Z,7.64
2018-01-10T11:59:39.366Z,7.68
2018-01-10T12:00:49.438Z,7.59
2018-01-10T12:01:59.714Z,7.67
2018-01-10T12:03:09.834Z,7.67
2018-01-10T12:04:19.633Z,7.71
2018-01-10T12:05:29.705Z,7.68
2018-01-10T12:06:39.781Z,7.68
2018-01-10T12:07:49.994Z,7.68
2018-01-10T12:09:00.072Z,7.68
2018-01-10T12:10:10.145Z,7.7
2018-01-10T12:11:20.249Z,7.7
2018-01-10T12:12:30.312Z,7.78
2018-01-10T12:13:40.169Z,7.75
2018-01-10T12:14:50.234Z,7.73
2018-01-10T12:16:00.283Z,7.64
2018-01-10T12:17:10.375Z,7.7
2018-01-10T12:18:20.457Z,7.71
2018-01-10T12:19:30.637Z,7.74
2018-01-10T12:20:40.500Z,7.7
2018-01-10T12:21:51.535Z,7.68
2018-01-10T12:23:01.628Z,7.68
2018-01-10T12:24:11.431Z,7.71
2018-01-10T12:25:21.740Z,7.73
2018-01-10T12:26:31.578Z,7.74
2018-01-10T12:27:41.369Z,7.71
2018-01-10T12:28:51.427Z,7.73
2018-01-10T12:30:01.520Z,7.75
2018-01-10T12:31:11.648Z,7.85
2018-01-10T12:32:21.761Z,7.82
2018-01-10T12:33:31.571Z,7.89
2018-01-10T12:34:41.107Z,8.01
2018-01-10T12:35:51.252Z,7.96
2018-01-10T12:37:01.360Z,7.96
2018-01-10T12:38:11.418Z,7.95
2018-01-10T12:39:21.496Z,7.98
2018-01-10T12:40:31.574Z,8.06
2018-01-10T12:41:41.661Z,8.13
2018-01-10T12:42:51.728Z,8.07
2018-01-10T12:44:01.798Z,8.1
2018-01-10T12:45:11.868Z,8.03
2018-01-10T12:46:21.929Z,7.95
2018-01-10T12:47:32.068Z,7.92
2018-01-10T12:48:42.151Z,7.93
2018-01-10T12:49:52.226Z,7.89
2018-01-10T12:51:02.459Z,7.85
2018-01-10T12:52:12.829Z,7.83
2018-01-10T12:53:22.349Z,7.91
2018-01-10T12:54:32.549Z,7.85
2018-01-10T12:55:42.356Z,7.8
2018-01-10T12:56:52.433Z,7.88
2018-01-10T12:58:02.245Z,7.89
2018-01-10T12:59:12.319Z,7.96
2018-01-10T13:00:21.858Z,7.93
2018-01-10T13:01:31.771Z,7.92
2018-01-10T13:02:41.844Z,7.98
2018-01-10T13:03:51.393Z,7.93
2018-01-10T13:05:01.508Z,7.98
2018-01-10T13:06:11.655Z,8.01
2018-01-10T13:07:21.819Z,8.01
2018-01-10T13:08:31.972Z,8.04
2018-01-10T13:09:42.086Z,7.98
2018-01-10T13:10:52.986Z,8.16
2018-01-10T13:12:02.817Z,8.09
2018-01-10T13:13:12.742Z,8.11
2018-01-10T13:14:22.820Z,8.26
2018-01-10T13:15:32.667Z,8.26
2018-01-10T13:16:42.978Z,8.13
2018-01-10T13:17:53.157Z,8.17
2018-01-10T13:19:02.775Z,8.17
2018-01-10T13:20:12.584Z,8.16
2018-01-10T13:21:22.692Z,8.26
2018-01-10T13:22:32.761Z,8.25
2018-01-10T13:23:42.584Z,8.24
2018-01-10T13:24:52.397Z,8.31
2018-01-10T13:26:02.501Z,8.36
2018-01-10T13:27:12.576Z,8.31
2018-01-10T13:28:22.115Z,8.39
2018-01-10T13:29:32.186Z,8.36
2018-01-10T13:30:42.269Z,8.44
2018-01-10T13:31:52.402Z,8.43
2018-01-10T13:33:02.495Z,8.43
2018-01-10T13:34:12.577Z,8.42
2018-01-10T13:35:22.391Z,8.43
2018-01-10T13:36:32.223Z,8.43
2018-01-10T13:37:42.268Z,8.4
2018-01-10T13:38:52.086Z,8.32
2018-01-10T13:40:02.168Z,8.31
2018-01-10T13:41:12.286Z,8.31
2018-01-10T13:42:22.356Z,8.35
2018-01-10T13:43:32.181Z,8.24
2018-01-10T13:44:42.921Z,8.31
2018-01-10T13:45:52.726Z,8.28
2018-01-10T13:47:02.879Z,8.21
2018-01-10T13:48:12.915Z,8.29
2018-01-10T13:49:22.743Z,8.29
2018-01-10T13:50:32.551Z,8.16
2018-01-10T13:51:42.634Z,8.24
2018-01-10T13:52:52.753Z,8.13
2018-01-10T13:54:02.836Z,8.21
2018-01-10T13:55:12.928Z,8.16
2018-01-10T13:56:23.289Z,8.11
2018-01-10T13:57:33.385Z,8.16
2018-01-10T13:58:43.233Z,8.22
2018-01-10T13:59:53.364Z,8.21
2018-01-10T14:01:03.506Z,8.13
2018-01-10T14:02:13.570Z,8.09
2018-01-10T14:03:23.390Z,8.09
2018-01-10T14:04:33.241Z,8.06
2018-01-10T14:05:43.282Z,8.04
2018-01-10T14:06:53.337Z,7.99
2018-01-10T14:08:03.123Z,7.99
2018-01-10T14:09:12.904Z,7.96
2018-01-10T14:10:22.965Z,7.88
2018-01-10T14:11:33.028Z,7.92
2018-01-10T14:12:43.131Z,7.83
2018-01-10T14:13:53.205Z,7.91
2018-01-10T14:15:02.997Z,7.83
2018-01-10T14:16:12.859Z,7.92
2018-01-10T14:17:22.637Z,7.92
2018-01-10T14:18:32.681Z,7.92
2018-01-10T14:19:42.234Z,7.89
2018-01-10T14:20:52.323Z,7.91
2018-01-10T14:22:02.097Z,7.92
2018-01-10T14:23:11.920Z,7.96
2018-01-10T14:24:21.990Z,7.99
2018-01-10T14:25:32.033Z,8.04
2018-01-10T14:26:42.121Z,7.92
2018-01-10T14:27:52.192Z,7.92
2018-01-10T14:29:02.254Z,7.95
2018-01-10T14:30:12.348Z,8.01
2018-01-10T14:31:22.160Z,7.95
2018-01-10T14:32:32.305Z,7.92
2018-01-10T14:33:42.416Z,7.98
2018-01-10T14:34:52.514Z,7.92
2018-01-10T14:36:02.568Z,7.93
2018-01-10T14:37:12.647Z,7.89
2018-01-10T14:38:22.757Z,7.91
2018-01-10T14:39:32.829Z,7.86
2018-01-10T14:40:42.878Z,7.92
2018-01-10T14:41:52.408Z,7.96
2018-01-10T14:43:02.536Z,7.96
2018-01-10T14:44:12.602Z,7.92
2018-01-10T14:45:22.411Z,7.99
2018-01-10T14:46:32.198Z,7.92
2018-01-10T14:47:41.984Z,7.92
2018-01-10T14:48:51.561Z,7.91
2018-01-10T14:50:01.604Z,7.89
2018-01-10T14:51:11.130Z,7.85
2018-01-10T14:52:21.177Z,7.95
2018-01-10T14:53:31.261Z,7.96
2018-01-10T14:54:41.372Z,7.89
2018-01-10T14:55:51.169Z,7.91
2018-01-10T14:57:01.219Z,7.92
2018-01-10T14:58:11.012Z,7.91
2018-01-10T14:59:21.078Z,7.96
2018-01-10T15:00:31.195Z,7.93
2018-01-10T15:01:41.276Z,7.89
2018-01-10T15:02:51.828Z,7.85
2018-01-10T15:04:01.895Z,7.85
2018-01-10T15:05:11.693Z,7.88
2018-01-10T15:06:21.493Z,7.83
2018-01-10T15:07:31.272Z,7.71
2018-01-10T15:08:41.090Z,7.82
2018-01-10T15:09:50.874Z,7.78
2018-01-10T15:11:00.942Z,7.8
2018-01-10T15:12:11.288Z,7.78
2018-01-10T15:13:21.334Z,7.75
2018-01-10T15:14:31.411Z,7.74
2018-01-10T15:15:41.470Z,7.73
2018-01-10T15:16:51.526Z,7.73
2018-01-10T15:18:01.632Z,7.73
2018-01-10T15:19:11.448Z,7.74
2018-01-10T15:20:21.569Z,7.71
2018-01-10T15:21:31.627Z,7.73
2018-01-10T15:22:41.403Z,7.74
2018-01-10T15:23:51.450Z,7.75
2018-01-10T15:25:01.530Z,7.75
2018-01-10T15:26:11.620Z,7.74
2018-01-10T15:27:21.418Z,7.75
2018-01-10T15:28:31.201Z,7.75
2018-01-10T15:29:41.106Z,7.74
2018-01-10T15:30:51.166Z,7.74
2018-01-10T15:32:00.961Z,7.82
2018-01-10T15:33:11.023Z,7.77
2018-01-10T15:34:22.146Z,7.75
2018-01-10T15:35:32.206Z,7.75
2018-01-10T15:36:42.043Z,7.77
2018-01-10T15:37:52.088Z,7.77
2018-01-10T15:39:02.151Z,7.77
2018-01-10T15:40:12.206Z,7.73
2018-01-10T15:41:22.040Z,7.82
2018-01-10T15:42:32.108Z,7.78
2018-01-10T15:43:42.231Z,7.77
2018-01-10T15:44:52.012Z,7.78
2018-01-10T15:46:02.084Z,7.75
2018-01-10T15:47:11.937Z,7.71
2018-01-10T15:48:21.731Z,7.77
2018-01-10T15:49:31.793Z,7.74
2018-01-10T15:50:41.619Z,7.74
2018-01-10T15:51:51.438Z,7.78
2018-01-10T15:53:01.544Z,7.86
2018-01-10T15:54:11.338Z,7.82
2018-01-10T15:55:21.404Z,7.83
2018-01-10T15:56:31.483Z,7.82
2018-01-10T15:57:42.566Z,7.85
2018-01-10T15:58:52.696Z,7.91
2018-01-10T16:00:02.518Z,7.83
2018-01-10T16:01:12.595Z,7.86
2018-01-10T16:02:22.665Z,7.92
2018-01-10T16:03:32.722Z,7.99
2018-01-10T16:04:42.843Z,7.93
2018-01-10T16:05:52.903Z,7.99
2018-01-10T16:07:02.957Z,7.91
2018-01-10T16:08:13.424Z,7.95
2018-01-10T16:09:23.484Z,7.99